<?xml version='1.0' encoding='UTF-8'?><gpx version="1.1" creator="JPX - https://github.com/jenetics/jpx" xmlns="http://www.topografix.com/GPX/1/1"><trk><trkseg><trkpt lat="44.6613506" lon="8.585359"><ele>332.0</ele><time>2026-04-03T14:10:36.151Z</time></trkpt><trkpt lat="44.6614227" lon="8.5853698"><ele>332.0</ele><time>2026-04-03T14:10:39.152Z</time></trkpt><trkpt lat="44.6614874" lon="8.5853868"><ele>332.0</ele><time>2026-04-03T14:10:42.152Z</time></trkpt><trkpt lat="44.6615757" lon="8.5853942"><ele>332.0</ele><time>2026-04-03T14:11:03.153Z</time></trkpt><trkpt lat="44.6616895" lon="8.585387"><ele>332.0</ele><time>2026-04-03T14:11:05.153Z</time></trkpt><trkpt lat="44.6617523" lon="8.5853721"><ele>332.0</ele><time>2026-04-03T14:11:06.155Z</time></trkpt><trkpt lat="44.6618195" lon="8.5853606"><ele>332.0</ele><time>2026-04-03T14:11:07.155Z</time></trkpt><trkpt lat="44.6618866" lon="8.5853476"><ele>332.0</ele><time>2026-04-03T14:11:08.155Z</time></trkpt><trkpt lat="44.6619956" lon="8.5853089"><ele>332.0</ele><time>2026-04-03T14:11:10.152Z</time></trkpt><trkpt lat="44.6620863" lon="8.5852944"><ele>332.0</ele><time>2026-04-03T14:11:12.153Z</time></trkpt><trkpt lat="44.662173" lon="8.585304"><ele>332.0</ele><time>2026-04-03T14:11:14.152Z</time></trkpt><trkpt lat="44.66225" lon="8.5853432"><ele>332.0</ele><time>2026-04-03T14:11:16.152Z</time></trkpt><trkpt lat="44.6623334" lon="8.5854253"><ele>329.40000000000003</ele><time>2026-04-03T14:11:18.152Z</time></trkpt><trkpt lat="44.6624177" lon="8.5855368"><ele>326.8</ele><time>2026-04-03T14:11:20.154Z</time></trkpt><trkpt lat="44.6624878" lon="8.5856691"><ele>324.2</ele><time>2026-04-03T14:11:22.156Z</time></trkpt><trkpt lat="44.6625381" lon="8.5858049"><ele>321.6</ele><time>2026-04-03T14:11:24.152Z</time></trkpt><trkpt lat="44.6625695" lon="8.585942"><ele>319.0</ele><time>2026-04-03T14:11:26.152Z</time></trkpt><trkpt lat="44.6625924" lon="8.5860797"><ele>319.4</ele><time>2026-04-03T14:11:28.153Z</time></trkpt><trkpt lat="44.6626048" lon="8.586218"><ele>319.79999999999995</ele><time>2026-04-03T14:11:30.154Z</time></trkpt><trkpt lat="44.6626059" lon="8.5863262"><ele>320.20000000000005</ele><time>2026-04-03T14:11:32.152Z</time></trkpt><trkpt lat="44.6626347" lon="8.5864603"><ele>320.6</ele><time>2026-04-03T14:11:50.154Z</time></trkpt><trkpt lat="44.6626552" lon="8.5866139"><ele>321.0</ele><time>2026-04-03T14:11:52.153Z</time></trkpt><trkpt lat="44.6626659" lon="8.5867025"><ele>321.0</ele><time>2026-04-03T14:11:53.153Z</time></trkpt><trkpt lat="44.6626871" lon="8.5867959"><ele>321.0</ele><time>2026-04-03T14:11:54.154Z</time></trkpt><trkpt lat="44.6627068" lon="8.586884"><ele>321.0</ele><time>2026-04-03T14:11:55.153Z</time></trkpt><trkpt lat="44.6627538" lon="8.5870357"><ele>321.0</ele><time>2026-04-03T14:11:57.154Z</time></trkpt><trkpt lat="44.662803" lon="8.5871771"><ele>321.0</ele><time>2026-04-03T14:11:59.155Z</time></trkpt><trkpt lat="44.6628464" lon="8.5872451"><ele>321.0</ele><time>2026-04-03T14:12:00.154Z</time></trkpt><trkpt lat="44.6628985" lon="8.5873105"><ele>319.57142857142856</ele><time>2026-04-03T14:12:01.154Z</time></trkpt><trkpt lat="44.6629516" lon="8.5873716"><ele>318.1428571428571</ele><time>2026-04-03T14:12:02.152Z</time></trkpt><trkpt lat="44.6630063" lon="8.5874323"><ele>316.71428571428567</ele><time>2026-04-03T14:12:03.153Z</time></trkpt><trkpt lat="44.6630648" lon="8.5874874"><ele>315.2857142857143</ele><time>2026-04-03T14:12:04.153Z</time></trkpt><trkpt lat="44.6631231" lon="8.5875371"><ele>313.8571428571429</ele><time>2026-04-03T14:12:05.153Z</time></trkpt><trkpt lat="44.663182" lon="8.5875894"><ele>312.4285714285714</ele><time>2026-04-03T14:12:06.153Z</time></trkpt><trkpt lat="44.6632596" lon="8.5876261"><ele>311.0</ele><time>2026-04-03T14:12:07.153Z</time></trkpt><trkpt lat="44.6633453" lon="8.5876421"><ele>311.0</ele><time>2026-04-03T14:12:08.152Z</time></trkpt><trkpt lat="44.6634366" lon="8.587651"><ele>311.0</ele><time>2026-04-03T14:12:09.153Z</time></trkpt><trkpt lat="44.6635306" lon="8.5876561"><ele>311.0</ele><time>2026-04-03T14:12:10.153Z</time></trkpt><trkpt lat="44.6636247" lon="8.5876548"><ele>311.0</ele><time>2026-04-03T14:12:11.152Z</time></trkpt><trkpt lat="44.6637196" lon="8.5876434"><ele>311.0</ele><time>2026-04-03T14:12:12.153Z</time></trkpt><trkpt lat="44.6638119" lon="8.5876184"><ele>312.0</ele><time>2026-04-03T14:12:13.152Z</time></trkpt><trkpt lat="44.6638984" lon="8.5875813"><ele>313.0</ele><time>2026-04-03T14:12:14.151Z</time></trkpt><trkpt lat="44.6639746" lon="8.5875345"><ele>314.0</ele><time>2026-04-03T14:12:15.156Z</time></trkpt><trkpt lat="44.6640373" lon="8.5874829"><ele>315.0</ele><time>2026-04-03T14:12:16.152Z</time></trkpt><trkpt lat="44.6640997" lon="8.5874208"><ele>316.0</ele><time>2026-04-03T14:12:17.152Z</time></trkpt><trkpt lat="44.6641599" lon="8.58736"><ele>317.0</ele><time>2026-04-03T14:12:18.151Z</time></trkpt><trkpt lat="44.6642258" lon="8.5873014"><ele>317.0</ele><time>2026-04-03T14:12:19.152Z</time></trkpt><trkpt lat="44.664295" lon="8.5872422"><ele>317.0</ele><time>2026-04-03T14:12:20.151Z</time></trkpt><trkpt lat="44.664368" lon="8.5871757"><ele>317.0</ele><time>2026-04-03T14:12:21.154Z</time></trkpt><trkpt lat="44.6644461" lon="8.587104"><ele>317.0</ele><time>2026-04-03T14:12:22.151Z</time></trkpt><trkpt lat="44.6645197" lon="8.5870235"><ele>317.0</ele><time>2026-04-03T14:12:23.152Z</time></trkpt><trkpt lat="44.664596" lon="8.5869401"><ele>316.0</ele><time>2026-04-03T14:12:24.152Z</time></trkpt><trkpt lat="44.6646681" lon="8.5868552"><ele>315.0</ele><time>2026-04-03T14:12:25.152Z</time></trkpt><trkpt lat="44.6647393" lon="8.5867719"><ele>314.0</ele><time>2026-04-03T14:12:26.154Z</time></trkpt><trkpt lat="44.6648112" lon="8.5866895"><ele>313.0</ele><time>2026-04-03T14:12:27.152Z</time></trkpt><trkpt lat="44.6648876" lon="8.5866113"><ele>312.0</ele><time>2026-04-03T14:12:28.153Z</time></trkpt><trkpt lat="44.664968" lon="8.586532"><ele>312.0</ele><time>2026-04-03T14:12:29.152Z</time></trkpt><trkpt lat="44.6650468" lon="8.5864501"><ele>312.0</ele><time>2026-04-03T14:12:30.154Z</time></trkpt><trkpt lat="44.6651266" lon="8.5863652"><ele>312.0</ele><time>2026-04-03T14:12:31.153Z</time></trkpt><trkpt lat="44.6652078" lon="8.5862799"><ele>312.0</ele><time>2026-04-03T14:12:32.153Z</time></trkpt><trkpt lat="44.6652895" lon="8.5861994"><ele>312.0</ele><time>2026-04-03T14:12:33.152Z</time></trkpt><trkpt lat="44.6653683" lon="8.5861259"><ele>311.8333333333333</ele><time>2026-04-03T14:12:34.153Z</time></trkpt><trkpt lat="44.6654435" lon="8.5860516"><ele>311.6666666666667</ele><time>2026-04-03T14:12:35.152Z</time></trkpt><trkpt lat="44.6655169" lon="8.5859779"><ele>311.5</ele><time>2026-04-03T14:12:36.154Z</time></trkpt><trkpt lat="44.6655896" lon="8.5859121"><ele>311.33333333333337</ele><time>2026-04-03T14:12:37.153Z</time></trkpt><trkpt lat="44.6656604" lon="8.5858688"><ele>311.1666666666667</ele><time>2026-04-03T14:12:38.153Z</time></trkpt><trkpt lat="44.6657363" lon="8.5858533"><ele>311.0</ele><time>2026-04-03T14:12:39.155Z</time></trkpt><trkpt lat="44.6658193" lon="8.5858653"><ele>311.0</ele><time>2026-04-03T14:12:40.155Z</time></trkpt><trkpt lat="44.665905" lon="8.5858964"><ele>311.0</ele><time>2026-04-03T14:12:41.153Z</time></trkpt><trkpt lat="44.6659871" lon="8.5859441"><ele>311.0</ele><time>2026-04-03T14:12:42.153Z</time></trkpt><trkpt lat="44.6660621" lon="8.5860023"><ele>311.0</ele><time>2026-04-03T14:12:43.155Z</time></trkpt><trkpt lat="44.6661366" lon="8.5860624"><ele>311.0</ele><time>2026-04-03T14:12:44.154Z</time></trkpt><trkpt lat="44.6662089" lon="8.5861153"><ele>311.0</ele><time>2026-04-03T14:12:45.153Z</time></trkpt><trkpt lat="44.6662771" lon="8.58615"><ele>311.33333333333337</ele><time>2026-04-03T14:12:46.153Z</time></trkpt><trkpt lat="44.6663453" lon="8.5861685"><ele>311.6666666666667</ele><time>2026-04-03T14:12:47.152Z</time></trkpt><trkpt lat="44.6664218" lon="8.5861804"><ele>312.0</ele><time>2026-04-03T14:12:48.153Z</time></trkpt><trkpt lat="44.6665082" lon="8.5862019"><ele>312.3333333333333</ele><time>2026-04-03T14:12:49.153Z</time></trkpt><trkpt lat="44.6665927" lon="8.5862207"><ele>312.66666666666663</ele><time>2026-04-03T14:12:50.152Z</time></trkpt><trkpt lat="44.6666739" lon="8.5862436"><ele>313.0</ele><time>2026-04-03T14:12:51.153Z</time></trkpt><trkpt lat="44.6667567" lon="8.5862728"><ele>313.0</ele><time>2026-04-03T14:12:52.154Z</time></trkpt><trkpt lat="44.666837" lon="8.5863034"><ele>313.0</ele><time>2026-04-03T14:12:53.153Z</time></trkpt><trkpt lat="44.6669199" lon="8.5863346"><ele>313.0</ele><time>2026-04-03T14:12:54.153Z</time></trkpt><trkpt lat="44.6670037" lon="8.5863684"><ele>313.0</ele><time>2026-04-03T14:12:55.152Z</time></trkpt><trkpt lat="44.6670869" lon="8.5863986"><ele>313.0</ele><time>2026-04-03T14:12:56.153Z</time></trkpt><trkpt lat="44.6671746" lon="8.586421"><ele>313.0</ele><time>2026-04-03T14:12:57.158Z</time></trkpt><trkpt lat="44.6672634" lon="8.5864299"><ele>312.3333333333333</ele><time>2026-04-03T14:12:58.153Z</time></trkpt><trkpt lat="44.6673502" lon="8.5864292"><ele>311.66666666666663</ele><time>2026-04-03T14:12:59.154Z</time></trkpt><trkpt lat="44.6674365" lon="8.5864236"><ele>311.0</ele><time>2026-04-03T14:13:00.154Z</time></trkpt><trkpt lat="44.667525" lon="8.5864093"><ele>310.3333333333333</ele><time>2026-04-03T14:13:01.154Z</time></trkpt><trkpt lat="44.6676145" lon="8.5863844"><ele>309.6666666666667</ele><time>2026-04-03T14:13:02.154Z</time></trkpt><trkpt lat="44.6677066" lon="8.5863568"><ele>309.0</ele><time>2026-04-03T14:13:03.154Z</time></trkpt><trkpt lat="44.6677926" lon="8.5863254"><ele>307.3333333333333</ele><time>2026-04-03T14:13:04.154Z</time></trkpt><trkpt lat="44.6678741" lon="8.5862965"><ele>305.6666666666667</ele><time>2026-04-03T14:13:05.154Z</time></trkpt><trkpt lat="44.6679525" lon="8.5862742"><ele>304.0</ele><time>2026-04-03T14:13:06.153Z</time></trkpt><trkpt lat="44.6680333" lon="8.5862528"><ele>302.33333333333337</ele><time>2026-04-03T14:13:07.152Z</time></trkpt><trkpt lat="44.6681123" lon="8.5862279"><ele>300.6666666666667</ele><time>2026-04-03T14:13:08.156Z</time></trkpt><trkpt lat="44.6681932" lon="8.5861996"><ele>299.0</ele><time>2026-04-03T14:13:09.153Z</time></trkpt><trkpt lat="44.6682724" lon="8.5861673"><ele>296.83333333333337</ele><time>2026-04-03T14:13:10.153Z</time></trkpt><trkpt lat="44.6683534" lon="8.5861462"><ele>294.6666666666667</ele><time>2026-04-03T14:13:11.153Z</time></trkpt><trkpt lat="44.6684413" lon="8.5861453"><ele>292.5</ele><time>2026-04-03T14:13:12.154Z</time></trkpt><trkpt lat="44.6685299" lon="8.586151"><ele>290.3333333333333</ele><time>2026-04-03T14:13:13.154Z</time></trkpt><trkpt lat="44.6686182" lon="8.5861519"><ele>288.16666666666663</ele><time>2026-04-03T14:13:14.155Z</time></trkpt><trkpt lat="44.6687054" lon="8.5861332"><ele>286.0</ele><time>2026-04-03T14:13:15.153Z</time></trkpt><trkpt lat="44.6687886" lon="8.586096"><ele>285.0</ele><time>2026-04-03T14:13:16.154Z</time></trkpt><trkpt lat="44.668866" lon="8.5860453"><ele>284.0</ele><time>2026-04-03T14:13:17.155Z</time></trkpt><trkpt lat="44.6689392" lon="8.5859934"><ele>283.0</ele><time>2026-04-03T14:13:18.153Z</time></trkpt><trkpt lat="44.669012" lon="8.5859397"><ele>282.0</ele><time>2026-04-03T14:13:19.154Z</time></trkpt><trkpt lat="44.6690819" lon="8.5858891"><ele>281.0</ele><time>2026-04-03T14:13:20.153Z</time></trkpt><trkpt lat="44.6691442" lon="8.5858441"><ele>280.0</ele><time>2026-04-03T14:13:21.154Z</time></trkpt><trkpt lat="44.6692104" lon="8.5857996"><ele>280.0</ele><time>2026-04-03T14:13:22.153Z</time></trkpt><trkpt lat="44.6692748" lon="8.5857573"><ele>280.0</ele><time>2026-04-03T14:13:23.154Z</time></trkpt><trkpt lat="44.6693485" lon="8.5857128"><ele>280.0</ele><time>2026-04-03T14:13:24.153Z</time></trkpt><trkpt lat="44.6694276" lon="8.5856666"><ele>280.0</ele><time>2026-04-03T14:13:25.152Z</time></trkpt><trkpt lat="44.6695068" lon="8.5856233"><ele>280.0</ele><time>2026-04-03T14:13:26.152Z</time></trkpt><trkpt lat="44.6695865" lon="8.5855773"><ele>280.0</ele><time>2026-04-03T14:13:27.153Z</time></trkpt><trkpt lat="44.6696743" lon="8.5855268"><ele>279.0</ele><time>2026-04-03T14:13:28.152Z</time></trkpt><trkpt lat="44.6697614" lon="8.5854797"><ele>278.0</ele><time>2026-04-03T14:13:29.153Z</time></trkpt><trkpt lat="44.6698451" lon="8.5854437"><ele>277.0</ele><time>2026-04-03T14:13:30.151Z</time></trkpt><trkpt lat="44.6699315" lon="8.5854123"><ele>276.0</ele><time>2026-04-03T14:13:31.152Z</time></trkpt><trkpt lat="44.6700196" lon="8.5853811"><ele>275.0</ele><time>2026-04-03T14:13:32.153Z</time></trkpt><trkpt lat="44.6701037" lon="8.5853547"><ele>274.0</ele><time>2026-04-03T14:13:33.158Z</time></trkpt><trkpt lat="44.6701885" lon="8.5853232"><ele>273.66666666666663</ele><time>2026-04-03T14:13:34.153Z</time></trkpt><trkpt lat="44.6702734" lon="8.5852933"><ele>273.3333333333333</ele><time>2026-04-03T14:13:35.153Z</time></trkpt><trkpt lat="44.6703505" lon="8.5852707"><ele>273.0</ele><time>2026-04-03T14:13:36.154Z</time></trkpt><trkpt lat="44.670428" lon="8.5852497"><ele>272.6666666666667</ele><time>2026-04-03T14:13:37.153Z</time></trkpt><trkpt lat="44.6705108" lon="8.5852252"><ele>272.33333333333337</ele><time>2026-04-03T14:13:38.153Z</time></trkpt><trkpt lat="44.670596" lon="8.5852001"><ele>272.0</ele><time>2026-04-03T14:13:39.154Z</time></trkpt><trkpt lat="44.6706673" lon="8.5851904"><ele>271.0</ele><time>2026-04-03T14:13:40.154Z</time></trkpt><trkpt lat="44.6707449" lon="8.5851713"><ele>270.0</ele><time>2026-04-03T14:13:41.153Z</time></trkpt><trkpt lat="44.6708227" lon="8.5851503"><ele>269.0</ele><time>2026-04-03T14:13:42.153Z</time></trkpt><trkpt lat="44.6708956" lon="8.5851311"><ele>268.0</ele><time>2026-04-03T14:13:43.154Z</time></trkpt><trkpt lat="44.6709683" lon="8.5851072"><ele>267.0</ele><time>2026-04-03T14:13:44.154Z</time></trkpt><trkpt lat="44.6710373" lon="8.5850737"><ele>266.0</ele><time>2026-04-03T14:13:45.155Z</time></trkpt><trkpt lat="44.6710991" lon="8.5850264"><ele>264.14285714285717</ele><time>2026-04-03T14:13:46.154Z</time></trkpt><trkpt lat="44.6711522" lon="8.5849702"><ele>262.2857142857143</ele><time>2026-04-03T14:13:47.155Z</time></trkpt><trkpt lat="44.6712033" lon="8.5849009"><ele>260.42857142857144</ele><time>2026-04-03T14:13:48.153Z</time></trkpt><trkpt lat="44.6712527" lon="8.5848331"><ele>258.57142857142856</ele><time>2026-04-03T14:13:49.153Z</time></trkpt><trkpt lat="44.6713003" lon="8.5847603"><ele>256.7142857142857</ele><time>2026-04-03T14:13:50.153Z</time></trkpt><trkpt lat="44.6713581" lon="8.5846873"><ele>254.8571428571429</ele><time>2026-04-03T14:13:51.154Z</time></trkpt><trkpt lat="44.6714168" lon="8.5846186"><ele>253.00000000000003</ele><time>2026-04-03T14:13:52.153Z</time></trkpt><trkpt lat="44.6714851" lon="8.5845555"><ele>253.49999999999997</ele><time>2026-04-03T14:13:53.153Z</time></trkpt><trkpt lat="44.6715517" lon="8.5844937"><ele>254.0</ele><time>2026-04-03T14:13:54.151Z</time></trkpt><trkpt lat="44.6716189" lon="8.5844318"><ele>254.5</ele><time>2026-04-03T14:13:55.153Z</time></trkpt><trkpt lat="44.671691" lon="8.584362"><ele>255.0</ele><time>2026-04-03T14:13:56.153Z</time></trkpt><trkpt lat="44.671767" lon="8.5842943"><ele>255.49999999999997</ele><time>2026-04-03T14:13:57.154Z</time></trkpt><trkpt lat="44.6718415" lon="8.5842299"><ele>256.0</ele><time>2026-04-03T14:13:58.152Z</time></trkpt><trkpt lat="44.6719232" lon="8.5841612"><ele>253.66666666666666</ele><time>2026-04-03T14:13:59.155Z</time></trkpt><trkpt lat="44.6720002" lon="8.5840911"><ele>251.33333333333331</ele><time>2026-04-03T14:14:00.154Z</time></trkpt><trkpt lat="44.6720758" lon="8.5840209"><ele>249.0</ele><time>2026-04-03T14:14:01.154Z</time></trkpt><trkpt lat="44.6721486" lon="8.5839511"><ele>246.66666666666669</ele><time>2026-04-03T14:14:02.153Z</time></trkpt><trkpt lat="44.6722232" lon="8.5838892"><ele>244.33333333333334</ele><time>2026-04-03T14:14:03.155Z</time></trkpt><trkpt lat="44.672298" lon="8.5838307"><ele>242.0</ele><time>2026-04-03T14:14:04.153Z</time></trkpt><trkpt lat="44.6723757" lon="8.5837751"><ele>242.00000000000003</ele><time>2026-04-03T14:14:05.155Z</time></trkpt><trkpt lat="44.6724523" lon="8.5837217"><ele>242.0</ele><time>2026-04-03T14:14:06.155Z</time></trkpt><trkpt lat="44.6725252" lon="8.5836737"><ele>242.0</ele><time>2026-04-03T14:14:07.155Z</time></trkpt><trkpt lat="44.6725958" lon="8.58363"><ele>242.0</ele><time>2026-04-03T14:14:08.154Z</time></trkpt><trkpt lat="44.6726669" lon="8.5835874"><ele>242.00000000000003</ele><time>2026-04-03T14:14:09.153Z</time></trkpt><trkpt lat="44.6727321" lon="8.5835395"><ele>242.0</ele><time>2026-04-03T14:14:10.154Z</time></trkpt><trkpt lat="44.6727968" lon="8.5834844"><ele>240.66666666666669</ele><time>2026-04-03T14:14:11.154Z</time></trkpt><trkpt lat="44.6728597" lon="8.5834222"><ele>239.33333333333334</ele><time>2026-04-03T14:14:12.153Z</time></trkpt><trkpt lat="44.6729162" lon="8.5833541"><ele>238.0</ele><time>2026-04-03T14:14:13.153Z</time></trkpt><trkpt lat="44.6729761" lon="8.5832723"><ele>236.66666666666669</ele><time>2026-04-03T14:14:14.154Z</time></trkpt><trkpt lat="44.6730332" lon="8.5831878"><ele>235.33333333333334</ele><time>2026-04-03T14:14:15.154Z</time></trkpt><trkpt lat="44.6730946" lon="8.5831103"><ele>234.0</ele><time>2026-04-03T14:14:16.153Z</time></trkpt><trkpt lat="44.6731539" lon="8.5830402"><ele>234.0</ele><time>2026-04-03T14:14:17.153Z</time></trkpt><trkpt lat="44.6732136" lon="8.58298"><ele>234.00000000000003</ele><time>2026-04-03T14:14:18.152Z</time></trkpt><trkpt lat="44.6732777" lon="8.5829292"><ele>234.0</ele><time>2026-04-03T14:14:19.153Z</time></trkpt><trkpt lat="44.6733441" lon="8.5828819"><ele>234.0</ele><time>2026-04-03T14:14:20.152Z</time></trkpt><trkpt lat="44.6734068" lon="8.5828392"><ele>234.00000000000003</ele><time>2026-04-03T14:14:21.152Z</time></trkpt><trkpt lat="44.6734696" lon="8.5827982"><ele>234.0</ele><time>2026-04-03T14:14:22.153Z</time></trkpt><trkpt lat="44.6735341" lon="8.5827599"><ele>234.0</ele><time>2026-04-03T14:14:23.155Z</time></trkpt><trkpt lat="44.6736059" lon="8.582733"><ele>233.2857142857143</ele><time>2026-04-03T14:14:24.153Z</time></trkpt><trkpt lat="44.6736849" lon="8.5827305"><ele>232.5714285714286</ele><time>2026-04-03T14:14:25.154Z</time></trkpt><trkpt lat="44.6737572" lon="8.5827556"><ele>231.85714285714286</ele><time>2026-04-03T14:14:26.153Z</time></trkpt><trkpt lat="44.6738173" lon="8.5828058"><ele>231.14285714285717</ele><time>2026-04-03T14:14:27.155Z</time></trkpt><trkpt lat="44.6738719" lon="8.582875"><ele>230.42857142857144</ele><time>2026-04-03T14:14:28.154Z</time></trkpt><trkpt lat="44.6739167" lon="8.582959"><ele>229.71428571428572</ele><time>2026-04-03T14:14:29.153Z</time></trkpt><trkpt lat="44.6739473" lon="8.5830526"><ele>229.0</ele><time>2026-04-03T14:14:30.154Z</time></trkpt><trkpt lat="44.6739345" lon="8.5831575"><ele>228.16666666666666</ele><time>2026-04-03T14:14:31.156Z</time></trkpt><trkpt lat="44.6739124" lon="8.5832562"><ele>227.33333333333331</ele><time>2026-04-03T14:14:32.154Z</time></trkpt><trkpt lat="44.6738825" lon="8.5833546"><ele>226.5</ele><time>2026-04-03T14:14:33.155Z</time></trkpt><trkpt lat="44.67384" lon="8.5834583"><ele>225.66666666666669</ele><time>2026-04-03T14:14:34.153Z</time></trkpt><trkpt lat="44.6738065" lon="8.5835635"><ele>224.83333333333334</ele><time>2026-04-03T14:14:35.154Z</time></trkpt><trkpt lat="44.6737894" lon="8.5836619"><ele>224.0</ele><time>2026-04-03T14:14:36.153Z</time></trkpt><trkpt lat="44.6737968" lon="8.5837615"><ele>223.33333333333334</ele><time>2026-04-03T14:14:37.154Z</time></trkpt><trkpt lat="44.673826" lon="8.5838529"><ele>222.66666666666669</ele><time>2026-04-03T14:14:38.155Z</time></trkpt><trkpt lat="44.6738713" lon="8.5839354"><ele>222.0</ele><time>2026-04-03T14:14:39.155Z</time></trkpt><trkpt lat="44.6739244" lon="8.5840125"><ele>221.33333333333331</ele><time>2026-04-03T14:14:40.153Z</time></trkpt><trkpt lat="44.6739811" lon="8.5840866"><ele>220.66666666666666</ele><time>2026-04-03T14:14:41.158Z</time></trkpt><trkpt lat="44.6740368" lon="8.5841587"><ele>220.0</ele><time>2026-04-03T14:14:42.158Z</time></trkpt><trkpt lat="44.6740959" lon="8.5842259"><ele>219.99999999999997</ele><time>2026-04-03T14:14:43.155Z</time></trkpt><trkpt lat="44.6741601" lon="8.5842834"><ele>220.0</ele><time>2026-04-03T14:14:44.152Z</time></trkpt><trkpt lat="44.6742285" lon="8.5843241"><ele>220.0</ele><time>2026-04-03T14:14:45.155Z</time></trkpt><trkpt lat="44.6743025" lon="8.584342"><ele>220.0</ele><time>2026-04-03T14:14:46.153Z</time></trkpt><trkpt lat="44.6743811" lon="8.5843402"><ele>219.99999999999997</ele><time>2026-04-03T14:14:47.154Z</time></trkpt><trkpt lat="44.6744629" lon="8.584324"><ele>220.0</ele><time>2026-04-03T14:14:48.152Z</time></trkpt><trkpt lat="44.6745455" lon="8.5842991"><ele>218.49999999999997</ele><time>2026-04-03T14:14:49.153Z</time></trkpt><trkpt lat="44.6746241" lon="8.5842804"><ele>217.0</ele><time>2026-04-03T14:14:50.153Z</time></trkpt><trkpt lat="44.6747034" lon="8.5842707"><ele>215.5</ele><time>2026-04-03T14:14:51.152Z</time></trkpt><trkpt lat="44.6747861" lon="8.5842629"><ele>214.0</ele><time>2026-04-03T14:14:52.152Z</time></trkpt><trkpt lat="44.6748694" lon="8.5842571"><ele>212.49999999999997</ele><time>2026-04-03T14:14:53.153Z</time></trkpt><trkpt lat="44.6749545" lon="8.5842501"><ele>211.0</ele><time>2026-04-03T14:14:54.152Z</time></trkpt><trkpt lat="44.6750432" lon="8.584237"><ele>210.99999999999997</ele><time>2026-04-03T14:14:55.152Z</time></trkpt><trkpt lat="44.6751297" lon="8.584217"><ele>211.0</ele><time>2026-04-03T14:14:56.151Z</time></trkpt><trkpt lat="44.6752095" lon="8.5841907"><ele>211.0</ele><time>2026-04-03T14:14:57.152Z</time></trkpt><trkpt lat="44.6752846" lon="8.58416"><ele>211.0</ele><time>2026-04-03T14:14:58.152Z</time></trkpt><trkpt lat="44.6753624" lon="8.5841312"><ele>210.99999999999997</ele><time>2026-04-03T14:14:59.153Z</time></trkpt><trkpt lat="44.6754419" lon="8.5841044"><ele>211.0</ele><time>2026-04-03T14:15:00.152Z</time></trkpt><trkpt lat="44.6755232" lon="8.5840746"><ele>211.33333333333331</ele><time>2026-04-03T14:15:01.154Z</time></trkpt><trkpt lat="44.6756008" lon="8.5840442"><ele>211.66666666666666</ele><time>2026-04-03T14:15:02.154Z</time></trkpt><trkpt lat="44.6756749" lon="8.584016"><ele>212.0</ele><time>2026-04-03T14:15:03.156Z</time></trkpt><trkpt lat="44.6757484" lon="8.5839871"><ele>212.33333333333331</ele><time>2026-04-03T14:15:04.153Z</time></trkpt><trkpt lat="44.6758248" lon="8.5839573"><ele>212.66666666666666</ele><time>2026-04-03T14:15:05.154Z</time></trkpt><trkpt lat="44.6759017" lon="8.5839305"><ele>213.0</ele><time>2026-04-03T14:15:06.154Z</time></trkpt><trkpt lat="44.6759784" lon="8.5838978"><ele>213.0</ele><time>2026-04-03T14:15:07.156Z</time></trkpt><trkpt lat="44.676051" lon="8.5838477"><ele>213.0</ele><time>2026-04-03T14:15:08.154Z</time></trkpt><trkpt lat="44.6761145" lon="8.5837897"><ele>213.0</ele><time>2026-04-03T14:15:09.154Z</time></trkpt><trkpt lat="44.6761642" lon="8.5837214"><ele>213.0</ele><time>2026-04-03T14:15:10.153Z</time></trkpt><trkpt lat="44.676228" lon="8.583592"><ele>213.0</ele><time>2026-04-03T14:15:12.153Z</time></trkpt><trkpt lat="44.6762762" lon="8.5834735"><ele>213.0</ele><time>2026-04-03T14:15:14.152Z</time></trkpt><trkpt lat="44.6763332" lon="8.5833872"><ele>212.99999999999997</ele><time>2026-04-03T14:15:16.152Z</time></trkpt><trkpt lat="44.6764107" lon="8.5833612"><ele>213.0</ele><time>2026-04-03T14:15:19.154Z</time></trkpt><trkpt lat="44.6764735" lon="8.5834347"><ele>213.0</ele><time>2026-04-03T14:15:21.154Z</time></trkpt><trkpt lat="44.6765096" lon="8.5835077"><ele>213.0</ele><time>2026-04-03T14:15:22.153Z</time></trkpt><trkpt lat="44.6765428" lon="8.5835907"><ele>213.0</ele><time>2026-04-03T14:15:23.154Z</time></trkpt><trkpt lat="44.6765741" lon="8.5836885"><ele>212.99999999999997</ele><time>2026-04-03T14:15:24.153Z</time></trkpt><trkpt lat="44.6766042" lon="8.5837915"><ele>213.0</ele><time>2026-04-03T14:15:25.154Z</time></trkpt><trkpt lat="44.6766333" lon="8.5838828"><ele>213.66666666666666</ele><time>2026-04-03T14:15:26.153Z</time></trkpt><trkpt lat="44.6766617" lon="8.5839776"><ele>214.33333333333331</ele><time>2026-04-03T14:15:27.155Z</time></trkpt><trkpt lat="44.6766865" lon="8.5840618"><ele>215.0</ele><time>2026-04-03T14:15:28.157Z</time></trkpt><trkpt lat="44.6767628" lon="8.5841886"><ele>215.66666666666666</ele><time>2026-04-03T14:15:30.154Z</time></trkpt><trkpt lat="44.6768611" lon="8.5842699"><ele>216.33333333333331</ele><time>2026-04-03T14:15:32.153Z</time></trkpt><trkpt lat="44.6769144" lon="8.5843265"><ele>217.0</ele><time>2026-04-03T14:15:33.155Z</time></trkpt><trkpt lat="44.6769611" lon="8.5843958"><ele>218.16666666666666</ele><time>2026-04-03T14:15:34.154Z</time></trkpt><trkpt lat="44.6770071" lon="8.5844687"><ele>219.33333333333331</ele><time>2026-04-03T14:15:35.154Z</time></trkpt><trkpt lat="44.6770459" lon="8.5845494"><ele>220.5</ele><time>2026-04-03T14:15:36.154Z</time></trkpt><trkpt lat="44.677077" lon="8.5846317"><ele>221.66666666666669</ele><time>2026-04-03T14:15:37.153Z</time></trkpt><trkpt lat="44.6771287" lon="8.5847652"><ele>222.83333333333334</ele><time>2026-04-03T14:15:39.153Z</time></trkpt><trkpt lat="44.6772183" lon="8.5848653"><ele>224.0</ele><time>2026-04-03T14:15:41.153Z</time></trkpt><trkpt lat="44.6772813" lon="8.5848863"><ele>224.0</ele><time>2026-04-03T14:15:42.152Z</time></trkpt><trkpt lat="44.6773988" lon="8.5848894"><ele>223.99999999999997</ele><time>2026-04-03T14:15:44.151Z</time></trkpt><trkpt lat="44.6774698" lon="8.5848627"><ele>223.99999999999997</ele><time>2026-04-03T14:15:45.153Z</time></trkpt><trkpt lat="44.6775518" lon="8.5848397"><ele>224.0</ele><time>2026-04-03T14:15:46.152Z</time></trkpt><trkpt lat="44.6776393" lon="8.5848142"><ele>224.0</ele><time>2026-04-03T14:15:47.151Z</time></trkpt><trkpt lat="44.6777272" lon="8.5847854"><ele>226.33333333333334</ele><time>2026-04-03T14:15:48.153Z</time></trkpt><trkpt lat="44.6778129" lon="8.5847518"><ele>228.66666666666669</ele><time>2026-04-03T14:15:49.153Z</time></trkpt><trkpt lat="44.6778977" lon="8.5847139"><ele>231.0</ele><time>2026-04-03T14:15:50.157Z</time></trkpt><trkpt lat="44.677977" lon="8.5846725"><ele>233.33333333333331</ele><time>2026-04-03T14:15:51.153Z</time></trkpt><trkpt lat="44.6780574" lon="8.5846299"><ele>235.66666666666666</ele><time>2026-04-03T14:15:52.152Z</time></trkpt><trkpt lat="44.678135" lon="8.5845917"><ele>238.0</ele><time>2026-04-03T14:15:53.152Z</time></trkpt><trkpt lat="44.6781983" lon="8.58458"><ele>237.99999999999997</ele><time>2026-04-03T14:15:54.153Z</time></trkpt><trkpt lat="44.6783183" lon="8.5846067"><ele>238.0</ele><time>2026-04-03T14:15:56.152Z</time></trkpt><trkpt lat="44.67837" lon="8.5846633"><ele>238.0</ele><time>2026-04-03T14:15:57.152Z</time></trkpt><trkpt lat="44.678415" lon="8.5847383"><ele>238.0</ele><time>2026-04-03T14:15:58.153Z</time></trkpt><trkpt lat="44.6784567" lon="8.5848817"><ele>237.99999999999997</ele><time>2026-04-03T14:16:00.153Z</time></trkpt><trkpt lat="44.6784667" lon="8.5847867"><ele>238.0</ele><time>2026-04-03T14:16:14.151Z</time></trkpt><trkpt lat="44.6784167" lon="8.5846583"><ele>237.99999999999997</ele><time>2026-04-03T14:16:16.151Z</time></trkpt><trkpt lat="44.6783483" lon="8.58453"><ele>238.0</ele><time>2026-04-03T14:16:18.153Z</time></trkpt><trkpt lat="44.6782883" lon="8.5844517"><ele>238.0</ele><time>2026-04-03T14:16:20.154Z</time></trkpt><trkpt lat="44.678235" lon="8.58438"><ele>238.0</ele><time>2026-04-03T14:16:42.153Z</time></trkpt><trkpt lat="44.678175" lon="8.5843133"><ele>237.99999999999997</ele><time>2026-04-03T14:16:44.155Z</time></trkpt><trkpt lat="44.678125" lon="8.5842383"><ele>238.0</ele><time>2026-04-03T14:16:46.154Z</time></trkpt><trkpt lat="44.6780717" lon="8.5841517"><ele>236.99999999999997</ele><time>2026-04-03T14:16:49.154Z</time></trkpt><trkpt lat="44.6780417" lon="8.5840683"><ele>236.0</ele><time>2026-04-03T14:16:51.154Z</time></trkpt><trkpt lat="44.6779983" lon="8.58398"><ele>235.0</ele><time>2026-04-03T14:16:53.154Z</time></trkpt><trkpt lat="44.6779467" lon="8.5838783"><ele>234.0</ele><time>2026-04-03T14:16:55.153Z</time></trkpt><trkpt lat="44.6779067" lon="8.5837867"><ele>232.99999999999997</ele><time>2026-04-03T14:16:57.155Z</time></trkpt><trkpt lat="44.6779583" lon="8.5839117"><ele>232.0</ele><time>2026-04-03T14:17:09.155Z</time></trkpt><trkpt lat="44.6780067" lon="8.5840133"><ele>232.00000000000003</ele><time>2026-04-03T14:17:11.153Z</time></trkpt><trkpt lat="44.67805" lon="8.5841117"><ele>232.0</ele><time>2026-04-03T14:17:13.154Z</time></trkpt><trkpt lat="44.6780983" lon="8.5841917"><ele>232.00000000000003</ele><time>2026-04-03T14:17:15.153Z</time></trkpt><trkpt lat="44.678145" lon="8.584265"><ele>232.00000000000003</ele><time>2026-04-03T14:17:17.153Z</time></trkpt><trkpt lat="44.6781933" lon="8.5843467"><ele>232.0</ele><time>2026-04-03T14:17:19.154Z</time></trkpt><trkpt lat="44.6782417" lon="8.58441"><ele>232.00000000000003</ele><time>2026-04-03T14:17:21.155Z</time></trkpt><trkpt lat="44.678315" lon="8.5844"><ele>232.00000000000003</ele><time>2026-04-03T14:17:25.153Z</time></trkpt><trkpt lat="44.678355" lon="8.58428"><ele>231.99999999999997</ele><time>2026-04-03T14:17:28.152Z</time></trkpt><trkpt lat="44.67839" lon="8.58419"><ele>232.0</ele><time>2026-04-03T14:17:30.152Z</time></trkpt><trkpt lat="44.67845" lon="8.5840883"><ele>232.0</ele><time>2026-04-03T14:17:32.154Z</time></trkpt><trkpt lat="44.6785133" lon="8.5840017"><ele>232.0</ele><time>2026-04-03T14:17:34.153Z</time></trkpt><trkpt lat="44.6785533" lon="8.58393"><ele>231.99999999999997</ele><time>2026-04-03T14:17:36.154Z</time></trkpt><trkpt lat="44.678635" lon="8.5838683"><ele>232.0</ele><time>2026-04-03T14:17:39.156Z</time></trkpt><trkpt lat="44.6787117" lon="8.5838467"><ele>231.66666666666666</ele><time>2026-04-03T14:17:41.155Z</time></trkpt><trkpt lat="44.6788017" lon="8.58383"><ele>231.33333333333331</ele><time>2026-04-03T14:17:43.154Z</time></trkpt><trkpt lat="44.6788933" lon="8.5838183"><ele>231.0</ele><time>2026-04-03T14:17:45.154Z</time></trkpt><trkpt lat="44.6789733" lon="8.5838217"><ele>230.66666666666669</ele><time>2026-04-03T14:17:47.155Z</time></trkpt><trkpt lat="44.679025" lon="8.5838783"><ele>230.33333333333334</ele><time>2026-04-03T14:17:49.154Z</time></trkpt><trkpt lat="44.6790833" lon="8.5839767"><ele>230.0</ele><time>2026-04-03T14:17:51.156Z</time></trkpt><trkpt lat="44.6791617" lon="8.5840567"><ele>230.0</ele><time>2026-04-03T14:17:53.153Z</time></trkpt><trkpt lat="44.6792517" lon="8.584145"><ele>230.0</ele><time>2026-04-03T14:17:55.156Z</time></trkpt><trkpt lat="44.6793067" lon="8.584245"><ele>230.0</ele><time>2026-04-03T14:17:57.155Z</time></trkpt><trkpt lat="44.6793717" lon="8.5843317"><ele>230.0</ele><time>2026-04-03T14:17:59.153Z</time></trkpt><trkpt lat="44.6794317" lon="8.5843917"><ele>230.0</ele><time>2026-04-03T14:18:02.153Z</time></trkpt><trkpt lat="44.679355" lon="8.5843067"><ele>230.0</ele><time>2026-04-03T14:18:48.153Z</time></trkpt><trkpt lat="44.6792883" lon="8.5841783"><ele>230.0</ele><time>2026-04-03T14:18:50.152Z</time></trkpt><trkpt lat="44.6792033" lon="8.5840917"><ele>230.0</ele><time>2026-04-03T14:18:52.152Z</time></trkpt><trkpt lat="44.6791233" lon="8.5840267"><ele>230.0</ele><time>2026-04-03T14:18:54.152Z</time></trkpt><trkpt lat="44.6790483" lon="8.58393"><ele>230.0</ele><time>2026-04-03T14:18:56.154Z</time></trkpt><trkpt lat="44.678995" lon="8.58385"><ele>230.00000000000003</ele><time>2026-04-03T14:18:58.154Z</time></trkpt><trkpt lat="44.678895" lon="8.5838433"><ele>230.0</ele><time>2026-04-03T14:19:01.154Z</time></trkpt><trkpt lat="44.6787715" lon="8.5838727"><ele>230.0</ele><time>2026-04-03T14:19:03.153Z</time></trkpt><trkpt lat="44.6786985" lon="8.5838818"><ele>230.0</ele><time>2026-04-03T14:19:04.152Z</time></trkpt><trkpt lat="44.6786189" lon="8.5838811"><ele>230.00000000000003</ele><time>2026-04-03T14:19:05.152Z</time></trkpt><trkpt lat="44.6785545" lon="8.5838808"><ele>230.0</ele><time>2026-04-03T14:19:06.152Z</time></trkpt><trkpt lat="44.6784573" lon="8.5839393"><ele>230.4</ele><time>2026-04-03T14:19:08.152Z</time></trkpt><trkpt lat="44.6783771" lon="8.5840636"><ele>230.8</ele><time>2026-04-03T14:19:10.152Z</time></trkpt><trkpt lat="44.6783103" lon="8.5841944"><ele>231.2</ele><time>2026-04-03T14:19:12.153Z</time></trkpt><trkpt lat="44.6782617" lon="8.5843089"><ele>231.6</ele><time>2026-04-03T14:19:14.152Z</time></trkpt><trkpt lat="44.6782931" lon="8.5844455"><ele>232.0</ele><time>2026-04-03T14:19:17.153Z</time></trkpt><trkpt lat="44.6783811" lon="8.5845849"><ele>233.2</ele><time>2026-04-03T14:19:19.153Z</time></trkpt><trkpt lat="44.678422" lon="8.5846632"><ele>234.39999999999998</ele><time>2026-04-03T14:19:20.153Z</time></trkpt><trkpt lat="44.6784534" lon="8.5847458"><ele>235.60000000000002</ele><time>2026-04-03T14:19:21.155Z</time></trkpt><trkpt lat="44.6784837" lon="8.5849072"><ele>236.8</ele><time>2026-04-03T14:19:23.152Z</time></trkpt><trkpt lat="44.6784927" lon="8.5850555"><ele>238.0</ele><time>2026-04-03T14:19:25.152Z</time></trkpt><trkpt lat="44.6785138" lon="8.5852404"><ele>237.99999999999997</ele><time>2026-04-03T14:19:27.153Z</time></trkpt><trkpt lat="44.6785371" lon="8.5853359"><ele>238.0</ele><time>2026-04-03T14:19:28.153Z</time></trkpt><trkpt lat="44.6785617" lon="8.5854175"><ele>238.0</ele><time>2026-04-03T14:19:29.153Z</time></trkpt><trkpt lat="44.6785937" lon="8.585552"><ele>238.0</ele><time>2026-04-03T14:19:31.152Z</time></trkpt><trkpt lat="44.6785917" lon="8.5854633"><ele>237.99999999999997</ele><time>2026-04-03T14:19:54.154Z</time></trkpt><trkpt lat="44.6785933" lon="8.5853283"><ele>238.0</ele><time>2026-04-03T14:19:58.152Z</time></trkpt><trkpt lat="44.6785933" lon="8.5851917"><ele>239.83333333333331</ele><time>2026-04-03T14:20:00.152Z</time></trkpt><trkpt lat="44.6786483" lon="8.5851083"><ele>241.66666666666666</ele><time>2026-04-03T14:20:02.152Z</time></trkpt><trkpt lat="44.6787667" lon="8.5850883"><ele>243.5</ele><time>2026-04-03T14:20:04.152Z</time></trkpt><trkpt lat="44.6788383" lon="8.5850883"><ele>245.33333333333331</ele><time>2026-04-03T14:20:05.154Z</time></trkpt><trkpt lat="44.6789017" lon="8.585095"><ele>247.16666666666666</ele><time>2026-04-03T14:20:06.152Z</time></trkpt><trkpt lat="44.6789717" lon="8.585115"><ele>249.0</ele><time>2026-04-03T14:20:07.152Z</time></trkpt><trkpt lat="44.67905" lon="8.585135"><ele>249.0</ele><time>2026-04-03T14:20:08.154Z</time></trkpt><trkpt lat="44.6791233" lon="8.5851467"><ele>248.99999999999997</ele><time>2026-04-03T14:20:09.155Z</time></trkpt><trkpt lat="44.6791933" lon="8.5851617"><ele>249.0</ele><time>2026-04-03T14:20:10.152Z</time></trkpt><trkpt lat="44.6792633" lon="8.5851833"><ele>249.0</ele><time>2026-04-03T14:20:11.155Z</time></trkpt><trkpt lat="44.6793383" lon="8.585205"><ele>248.99999999999997</ele><time>2026-04-03T14:20:12.152Z</time></trkpt><trkpt lat="44.6794133" lon="8.585215"><ele>249.0</ele><time>2026-04-03T14:20:13.152Z</time></trkpt><trkpt lat="44.6794933" lon="8.5852167"><ele>249.0</ele><time>2026-04-03T14:20:14.153Z</time></trkpt><trkpt lat="44.6795767" lon="8.5852133"><ele>249.42857142857142</ele><time>2026-04-03T14:20:15.152Z</time></trkpt><trkpt lat="44.6796517" lon="8.5852267"><ele>249.85714285714283</ele><time>2026-04-03T14:20:16.152Z</time></trkpt><trkpt lat="44.67972" lon="8.5852433"><ele>250.28571428571428</ele><time>2026-04-03T14:20:17.155Z</time></trkpt><trkpt lat="44.6797817" lon="8.58527"><ele>250.71428571428572</ele><time>2026-04-03T14:20:18.154Z</time></trkpt><trkpt lat="44.679845" lon="8.585295"><ele>251.14285714285714</ele><time>2026-04-03T14:20:19.153Z</time></trkpt><trkpt lat="44.6799083" lon="8.5853083"><ele>251.57142857142856</ele><time>2026-04-03T14:20:20.156Z</time></trkpt><trkpt lat="44.6800117" lon="8.585325"><ele>252.0</ele><time>2026-04-03T14:20:22.154Z</time></trkpt><trkpt lat="44.6800867" lon="8.5852967"><ele>252.0</ele><time>2026-04-03T14:20:48.15Z</time></trkpt><trkpt lat="44.6801467" lon="8.5852267"><ele>252.0</ele><time>2026-04-03T14:20:50.182Z</time></trkpt><trkpt lat="44.680205" lon="8.5851617"><ele>252.0</ele><time>2026-04-03T14:20:52.153Z</time></trkpt><trkpt lat="44.6802583" lon="8.5851067"><ele>252.0</ele><time>2026-04-03T14:20:54.152Z</time></trkpt><trkpt lat="44.680175" lon="8.5851667"><ele>252.0</ele><time>2026-04-03T14:21:01.151Z</time></trkpt><trkpt lat="44.68011" lon="8.5852567"><ele>252.0</ele><time>2026-04-03T14:21:03.152Z</time></trkpt><trkpt lat="44.6800517" lon="8.5853067"><ele>252.0</ele><time>2026-04-03T14:21:05.151Z</time></trkpt><trkpt lat="44.680135" lon="8.5853417"><ele>252.0</ele><time>2026-04-03T14:21:15.183Z</time></trkpt><trkpt lat="44.680225" lon="8.5853433"><ele>252.0</ele><time>2026-04-03T14:21:17.153Z</time></trkpt><trkpt lat="44.68031" lon="8.585345"><ele>252.0</ele><time>2026-04-03T14:21:19.155Z</time></trkpt><trkpt lat="44.680405" lon="8.5852917"><ele>252.0</ele><time>2026-04-03T14:21:21.153Z</time></trkpt><trkpt lat="44.680495" lon="8.5852233"><ele>256.4</ele><time>2026-04-03T14:21:23.152Z</time></trkpt><trkpt lat="44.6805933" lon="8.585185"><ele>260.79999999999995</ele><time>2026-04-03T14:21:25.152Z</time></trkpt><trkpt lat="44.6807" lon="8.5851817"><ele>265.2</ele><time>2026-04-03T14:21:27.152Z</time></trkpt><trkpt lat="44.6808033" lon="8.58518"><ele>269.59999999999997</ele><time>2026-04-03T14:21:29.152Z</time></trkpt><trkpt lat="44.6809117" lon="8.5851583"><ele>274.0</ele><time>2026-04-03T14:21:31.152Z</time></trkpt><trkpt lat="44.681015" lon="8.585125"><ele>280.2</ele><time>2026-04-03T14:21:33.152Z</time></trkpt><trkpt lat="44.681125" lon="8.5850983"><ele>286.4</ele><time>2026-04-03T14:21:35.155Z</time></trkpt><trkpt lat="44.6812367" lon="8.585075"><ele>292.6</ele><time>2026-04-03T14:21:37.151Z</time></trkpt><trkpt lat="44.681345" lon="8.5850567"><ele>298.8</ele><time>2026-04-03T14:21:39.152Z</time></trkpt><trkpt lat="44.6814267" lon="8.585025"><ele>305.0</ele><time>2026-04-03T14:21:41.151Z</time></trkpt><trkpt lat="44.6814967" lon="8.5849567"><ele>305.0</ele><time>2026-04-03T14:21:43.154Z</time></trkpt><trkpt lat="44.6815417" lon="8.58485"><ele>305.0</ele><time>2026-04-03T14:21:45.153Z</time></trkpt><trkpt lat="44.6815683" lon="8.5847417"><ele>305.0</ele><time>2026-04-03T14:21:47.152Z</time></trkpt><trkpt lat="44.6816283" lon="8.5846767"><ele>305.0</ele><time>2026-04-03T14:21:58.152Z</time></trkpt><trkpt lat="44.68171" lon="8.5847133"><ele>305.0</ele><time>2026-04-03T14:22:01.152Z</time></trkpt><trkpt lat="44.681775" lon="8.5846717"><ele>305.0</ele><time>2026-04-03T14:22:03.154Z</time></trkpt><trkpt lat="44.681855" lon="8.5846183"><ele>305.0</ele><time>2026-04-03T14:22:05.154Z</time></trkpt><trkpt lat="44.6819217" lon="8.58462"><ele>305.0</ele><time>2026-04-03T14:22:07.152Z</time></trkpt><trkpt lat="44.6819633" lon="8.5845517"><ele>305.0</ele><time>2026-04-03T14:22:25.152Z</time></trkpt><trkpt lat="44.681955" lon="8.5844217"><ele>305.0</ele><time>2026-04-03T14:22:27.154Z</time></trkpt><trkpt lat="44.6819517" lon="8.58433"><ele>305.0</ele><time>2026-04-03T14:22:28.152Z</time></trkpt><trkpt lat="44.6819533" lon="8.5842217"><ele>305.0</ele><time>2026-04-03T14:22:29.151Z</time></trkpt><trkpt lat="44.6819567" lon="8.58411"><ele>305.0</ele><time>2026-04-03T14:22:30.151Z</time></trkpt><trkpt lat="44.6819683" lon="8.584005"><ele>301.2</ele><time>2026-04-03T14:22:31.153Z</time></trkpt><trkpt lat="44.6819817" lon="8.583915"><ele>297.4</ele><time>2026-04-03T14:22:32.151Z</time></trkpt><trkpt lat="44.6819983" lon="8.5837467"><ele>293.6</ele><time>2026-04-03T14:22:34.154Z</time></trkpt><trkpt lat="44.6820117" lon="8.5835783"><ele>289.8</ele><time>2026-04-03T14:22:36.152Z</time></trkpt><trkpt lat="44.6820283" lon="8.583425"><ele>286.0</ele><time>2026-04-03T14:22:38.152Z</time></trkpt><trkpt lat="44.6820633" lon="8.5832733"><ele>286.0</ele><time>2026-04-03T14:22:40.151Z</time></trkpt><trkpt lat="44.6821183" lon="8.5831467"><ele>286.0</ele><time>2026-04-03T14:22:42.151Z</time></trkpt><trkpt lat="44.6822067" lon="8.58306"><ele>286.0</ele><time>2026-04-03T14:22:44.153Z</time></trkpt><trkpt lat="44.6823083" lon="8.583005"><ele>286.0</ele><time>2026-04-03T14:22:46.152Z</time></trkpt><trkpt lat="44.682415" lon="8.5829383"><ele>286.0</ele><time>2026-04-03T14:22:48.153Z</time></trkpt><trkpt lat="44.6824767" lon="8.5829183"><ele>286.0</ele><time>2026-04-03T14:22:49.153Z</time></trkpt><trkpt lat="44.68254" lon="8.5829017"><ele>286.0</ele><time>2026-04-03T14:22:50.153Z</time></trkpt><trkpt lat="44.6826567" lon="8.5828633"><ele>286.0</ele><time>2026-04-03T14:22:52.153Z</time></trkpt><trkpt lat="44.6827233" lon="8.5828517"><ele>286.0</ele><time>2026-04-03T14:22:54.152Z</time></trkpt><trkpt lat="44.6827967" lon="8.5829383"><ele>286.0</ele><time>2026-04-03T14:23:03.154Z</time></trkpt><trkpt lat="44.68288" lon="8.5829633"><ele>286.0</ele><time>2026-04-03T14:23:05.152Z</time></trkpt><trkpt lat="44.6829833" lon="8.5829867"><ele>282.8</ele><time>2026-04-03T14:23:07.152Z</time></trkpt><trkpt lat="44.6830817" lon="8.583035"><ele>279.6</ele><time>2026-04-03T14:23:09.151Z</time></trkpt><trkpt lat="44.6831783" lon="8.583085"><ele>276.4</ele><time>2026-04-03T14:23:11.152Z</time></trkpt><trkpt lat="44.6832683" lon="8.5831367"><ele>273.2</ele><time>2026-04-03T14:23:13.151Z</time></trkpt><trkpt lat="44.6833717" lon="8.583185"><ele>270.0</ele><time>2026-04-03T14:23:15.154Z</time></trkpt><trkpt lat="44.683475" lon="8.58321"><ele>270.0</ele><time>2026-04-03T14:23:17.153Z</time></trkpt><trkpt lat="44.6835817" lon="8.58323"><ele>270.0</ele><time>2026-04-03T14:23:19.152Z</time></trkpt><trkpt lat="44.6836783" lon="8.5832583"><ele>270.0</ele><time>2026-04-03T14:23:21.153Z</time></trkpt><trkpt lat="44.6837667" lon="8.5832983"><ele>270.0</ele><time>2026-04-03T14:23:23.152Z</time></trkpt><trkpt lat="44.6838567" lon="8.5833433"><ele>270.0</ele><time>2026-04-03T14:23:25.151Z</time></trkpt><trkpt lat="44.6839417" lon="8.583375"><ele>268.2</ele><time>2026-04-03T14:23:27.151Z</time></trkpt><trkpt lat="44.68403" lon="8.583395"><ele>266.4</ele><time>2026-04-03T14:23:29.151Z</time></trkpt><trkpt lat="44.6841117" lon="8.5833933"><ele>264.6</ele><time>2026-04-03T14:23:31.152Z</time></trkpt><trkpt lat="44.6842033" lon="8.5834133"><ele>262.8</ele><time>2026-04-03T14:23:33.152Z</time></trkpt><trkpt lat="44.6842983" lon="8.58342"><ele>261.0</ele><time>2026-04-03T14:23:35.154Z</time></trkpt><trkpt lat="44.68441" lon="8.583415"><ele>258.8</ele><time>2026-04-03T14:23:37.153Z</time></trkpt><trkpt lat="44.6845233" lon="8.5834083"><ele>256.6</ele><time>2026-04-03T14:23:39.154Z</time></trkpt><trkpt lat="44.68463" lon="8.58343"><ele>254.4</ele><time>2026-04-03T14:23:41.152Z</time></trkpt><trkpt lat="44.68473" lon="8.5834483"><ele>252.2</ele><time>2026-04-03T14:23:43.152Z</time></trkpt><trkpt lat="44.6848167" lon="8.583485"><ele>250.0</ele><time>2026-04-03T14:23:45.151Z</time></trkpt><trkpt lat="44.6848567" lon="8.5835683"><ele>249.99999999999997</ele><time>2026-04-03T14:23:47.153Z</time></trkpt><trkpt lat="44.6848483" lon="8.5836667"><ele>250.0</ele><time>2026-04-03T14:23:49.152Z</time></trkpt><trkpt lat="44.6847967" lon="8.5837583"><ele>250.0</ele><time>2026-04-03T14:23:51.152Z</time></trkpt><trkpt lat="44.684745" lon="8.5838517"><ele>250.0</ele><time>2026-04-03T14:23:53.151Z</time></trkpt><trkpt lat="44.6846883" lon="8.583945"><ele>249.99999999999997</ele><time>2026-04-03T14:23:55.151Z</time></trkpt><trkpt lat="44.684615" lon="8.584015"><ele>250.0</ele><time>2026-04-03T14:23:57.153Z</time></trkpt><trkpt lat="44.6845333" lon="8.5840617"><ele>248.49999999999997</ele><time>2026-04-03T14:23:59.153Z</time></trkpt><trkpt lat="44.6844617" lon="8.584115"><ele>247.0</ele><time>2026-04-03T14:24:01.152Z</time></trkpt><trkpt lat="44.684445" lon="8.5842067"><ele>245.5</ele><time>2026-04-03T14:24:04.153Z</time></trkpt><trkpt lat="44.6844983" lon="8.58432"><ele>244.0</ele><time>2026-04-03T14:24:06.152Z</time></trkpt><trkpt lat="44.6846" lon="8.5844217"><ele>242.49999999999997</ele><time>2026-04-03T14:24:08.153Z</time></trkpt><trkpt lat="44.68466" lon="8.5844667"><ele>241.0</ele><time>2026-04-03T14:24:09.153Z</time></trkpt><trkpt lat="44.68472" lon="8.5845217"><ele>241.0</ele><time>2026-04-03T14:24:10.165Z</time></trkpt><trkpt lat="44.684805" lon="8.5846167"><ele>241.00000000000003</ele><time>2026-04-03T14:24:12.152Z</time></trkpt><trkpt lat="44.6848917" lon="8.584705"><ele>241.00000000000003</ele><time>2026-04-03T14:24:14.151Z</time></trkpt><trkpt lat="44.6849583" lon="8.584795"><ele>241.0</ele><time>2026-04-03T14:24:16.152Z</time></trkpt><trkpt lat="44.6850317" lon="8.58489"><ele>241.0</ele><time>2026-04-03T14:24:18.152Z</time></trkpt><trkpt lat="44.68512" lon="8.5849267"><ele>241.0</ele><time>2026-04-03T14:24:20.152Z</time></trkpt><trkpt lat="44.6851917" lon="8.58486"><ele>241.00000000000003</ele><time>2026-04-03T14:24:22.152Z</time></trkpt><trkpt lat="44.6852467" lon="8.5847417"><ele>241.00000000000003</ele><time>2026-04-03T14:24:24.154Z</time></trkpt><trkpt lat="44.6852883" lon="8.5846133"><ele>241.0</ele><time>2026-04-03T14:24:26.152Z</time></trkpt><trkpt lat="44.6853267" lon="8.5844767"><ele>241.0</ele><time>2026-04-03T14:24:28.153Z</time></trkpt><trkpt lat="44.6853783" lon="8.5843483"><ele>238.83333333333331</ele><time>2026-04-03T14:24:30.152Z</time></trkpt><trkpt lat="44.6854267" lon="8.5842617"><ele>236.66666666666666</ele><time>2026-04-03T14:24:32.152Z</time></trkpt><trkpt lat="44.6854933" lon="8.584175"><ele>234.5</ele><time>2026-04-03T14:24:34.152Z</time></trkpt><trkpt lat="44.6855617" lon="8.58413"><ele>232.33333333333331</ele><time>2026-04-03T14:24:36.151Z</time></trkpt><trkpt lat="44.68563" lon="8.5841167"><ele>230.16666666666666</ele><time>2026-04-03T14:24:38.151Z</time></trkpt><trkpt lat="44.685705" lon="8.5841"><ele>228.0</ele><time>2026-04-03T14:24:40.152Z</time></trkpt><trkpt lat="44.6858083" lon="8.5841017"><ele>228.0</ele><time>2026-04-03T14:24:42.152Z</time></trkpt><trkpt lat="44.6859267" lon="8.5841083"><ele>228.0</ele><time>2026-04-03T14:24:44.151Z</time></trkpt><trkpt lat="44.6860367" lon="8.584085"><ele>228.0</ele><time>2026-04-03T14:24:46.152Z</time></trkpt><trkpt lat="44.6861317" lon="8.584035"><ele>228.0</ele><time>2026-04-03T14:24:48.153Z</time></trkpt><trkpt lat="44.686215" lon="8.58398"><ele>228.0</ele><time>2026-04-03T14:24:50.153Z</time></trkpt><trkpt lat="44.68631" lon="8.5839133"><ele>229.0</ele><time>2026-04-03T14:24:52.153Z</time></trkpt><trkpt lat="44.6864067" lon="8.5838367"><ele>230.0</ele><time>2026-04-03T14:24:54.152Z</time></trkpt><trkpt lat="44.6864767" lon="8.583745"><ele>231.0</ele><time>2026-04-03T14:24:56.155Z</time></trkpt><trkpt lat="44.6865433" lon="8.583675"><ele>232.0</ele><time>2026-04-03T14:24:58.153Z</time></trkpt><trkpt lat="44.6865967" lon="8.5836167"><ele>233.0</ele><time>2026-04-03T14:25:00.153Z</time></trkpt><trkpt lat="44.6866267" lon="8.583515"><ele>234.0</ele><time>2026-04-03T14:25:02.151Z</time></trkpt><trkpt lat="44.6866583" lon="8.583385"><ele>233.5</ele><time>2026-04-03T14:25:04.152Z</time></trkpt><trkpt lat="44.6867033" lon="8.58327"><ele>233.0</ele><time>2026-04-03T14:25:06.153Z</time></trkpt><trkpt lat="44.6867517" lon="8.583175"><ele>232.5</ele><time>2026-04-03T14:25:08.153Z</time></trkpt><trkpt lat="44.686805" lon="8.5830783"><ele>232.0</ele><time>2026-04-03T14:25:10.152Z</time></trkpt><trkpt lat="44.6868567" lon="8.5829967"><ele>231.5</ele><time>2026-04-03T14:25:12.152Z</time></trkpt><trkpt lat="44.6869417" lon="8.5829283"><ele>231.0</ele><time>2026-04-03T14:25:14.151Z</time></trkpt><trkpt lat="44.6870367" lon="8.5828783"><ele>227.60000000000002</ele><time>2026-04-03T14:25:16.153Z</time></trkpt><trkpt lat="44.6871267" lon="8.5828017"><ele>224.20000000000002</ele><time>2026-04-03T14:25:18.153Z</time></trkpt><trkpt lat="44.6872067" lon="8.582735"><ele>220.79999999999998</ele><time>2026-04-03T14:25:20.153Z</time></trkpt><trkpt lat="44.6872817" lon="8.5826533"><ele>217.39999999999998</ele><time>2026-04-03T14:25:22.152Z</time></trkpt><trkpt lat="44.68733" lon="8.5825533"><ele>214.0</ele><time>2026-04-03T14:25:24.151Z</time></trkpt><trkpt lat="44.687385" lon="8.5824467"><ele>213.99999999999997</ele><time>2026-04-03T14:25:26.151Z</time></trkpt><trkpt lat="44.6874517" lon="8.582375"><ele>214.0</ele><time>2026-04-03T14:25:28.151Z</time></trkpt><trkpt lat="44.6875167" lon="8.5822917"><ele>214.0</ele><time>2026-04-03T14:25:30.153Z</time></trkpt><trkpt lat="44.68755" lon="8.582215"><ele>214.0</ele><time>2026-04-03T14:25:31.152Z</time></trkpt><trkpt lat="44.6876017" lon="8.5821"><ele>213.99999999999997</ele><time>2026-04-03T14:25:33.153Z</time></trkpt><trkpt lat="44.6876117" lon="8.581965"><ele>214.0</ele><time>2026-04-03T14:25:35.154Z</time></trkpt><trkpt lat="44.68765" lon="8.5818383"><ele>213.66666666666666</ele><time>2026-04-03T14:25:37.151Z</time></trkpt><trkpt lat="44.6877017" lon="8.58175"><ele>213.33333333333331</ele><time>2026-04-03T14:25:39.153Z</time></trkpt><trkpt lat="44.68776" lon="8.5816717"><ele>213.0</ele><time>2026-04-03T14:25:41.153Z</time></trkpt><trkpt lat="44.6877983" lon="8.5815567"><ele>212.66666666666669</ele><time>2026-04-03T14:25:43.152Z</time></trkpt><trkpt lat="44.6878317" lon="8.58143"><ele>212.33333333333334</ele><time>2026-04-03T14:25:45.151Z</time></trkpt><trkpt lat="44.687875" lon="8.5813033"><ele>212.0</ele><time>2026-04-03T14:25:47.151Z</time></trkpt><trkpt lat="44.6879117" lon="8.5811867"><ele>210.66666666666669</ele><time>2026-04-03T14:25:49.152Z</time></trkpt><trkpt lat="44.68797" lon="8.5811283"><ele>209.33333333333334</ele><time>2026-04-03T14:25:52.152Z</time></trkpt><trkpt lat="44.6880283" lon="8.5810633"><ele>208.0</ele><time>2026-04-03T14:25:57.152Z</time></trkpt><trkpt lat="44.6880567" lon="8.5809167"><ele>206.66666666666669</ele><time>2026-04-03T14:26:59.154Z</time></trkpt><trkpt lat="44.688085" lon="8.5808133"><ele>205.33333333333334</ele><time>2026-04-03T14:27:02.152Z</time></trkpt><trkpt lat="44.6881417" lon="8.5807067"><ele>204.0</ele><time>2026-04-03T14:27:05.151Z</time></trkpt><trkpt lat="44.6881733" lon="8.5805817"><ele>204.0</ele><time>2026-04-03T14:27:08.152Z</time></trkpt><trkpt lat="44.6882117" lon="8.5804683"><ele>204.0</ele><time>2026-04-03T14:27:10.151Z</time></trkpt><trkpt lat="44.68825" lon="8.5803467"><ele>204.0</ele><time>2026-04-03T14:27:12.153Z</time></trkpt><trkpt lat="44.688285" lon="8.58021"><ele>204.0</ele><time>2026-04-03T14:27:14.152Z</time></trkpt><trkpt lat="44.6883233" lon="8.580095"><ele>204.0</ele><time>2026-04-03T14:27:16.153Z</time></trkpt><trkpt lat="44.6883567" lon="8.579995"><ele>202.0</ele><time>2026-04-03T14:27:18.151Z</time></trkpt><trkpt lat="44.688405" lon="8.5798817"><ele>200.0</ele><time>2026-04-03T14:27:20.155Z</time></trkpt><trkpt lat="44.6884417" lon="8.5797583"><ele>198.0</ele><time>2026-04-03T14:27:22.152Z</time></trkpt><trkpt lat="44.688485" lon="8.5796383"><ele>196.0</ele><time>2026-04-03T14:27:24.151Z</time></trkpt><trkpt lat="44.688525" lon="8.57954"><ele>194.0</ele><time>2026-04-03T14:27:26.152Z</time></trkpt><trkpt lat="44.6885633" lon="8.5794333"><ele>193.0</ele><time>2026-04-03T14:27:28.152Z</time></trkpt><trkpt lat="44.6886317" lon="8.5793383"><ele>192.0</ele><time>2026-04-03T14:27:30.152Z</time></trkpt><trkpt lat="44.6887117" lon="8.57925"><ele>191.0</ele><time>2026-04-03T14:27:32.155Z</time></trkpt><trkpt lat="44.6887683" lon="8.57916"><ele>190.0</ele><time>2026-04-03T14:27:35.152Z</time></trkpt><trkpt lat="44.68874" lon="8.5790783"><ele>189.0</ele><time>2026-04-03T14:27:37.152Z</time></trkpt><trkpt lat="44.6886617" lon="8.578945"><ele>189.0</ele><time>2026-04-03T14:27:39.155Z</time></trkpt><trkpt lat="44.6886183" lon="8.5788533"><ele>189.0</ele><time>2026-04-03T14:27:40.151Z</time></trkpt><trkpt lat="44.6885817" lon="8.5787617"><ele>189.0</ele><time>2026-04-03T14:27:41.152Z</time></trkpt><trkpt lat="44.6885517" lon="8.5786617"><ele>189.0</ele><time>2026-04-03T14:27:42.153Z</time></trkpt><trkpt lat="44.68853" lon="8.578565"><ele>189.0</ele><time>2026-04-03T14:27:43.151Z</time></trkpt><trkpt lat="44.6885167" lon="8.57847"><ele>189.0</ele><time>2026-04-03T14:27:44.151Z</time></trkpt><trkpt lat="44.6885067" lon="8.578375"><ele>189.0</ele><time>2026-04-03T14:27:45.154Z</time></trkpt><trkpt lat="44.68849" lon="8.5782783"><ele>188.0</ele><time>2026-04-03T14:27:46.151Z</time></trkpt><trkpt lat="44.68847" lon="8.5781383"><ele>187.0</ele><time>2026-04-03T14:27:48.153Z</time></trkpt><trkpt lat="44.6884933" lon="8.5780433"><ele>186.0</ele><time>2026-04-03T14:27:50.153Z</time></trkpt><trkpt lat="44.688595" lon="8.5780283"><ele>185.0</ele><time>2026-04-03T14:27:52.153Z</time></trkpt><trkpt lat="44.6886617" lon="8.5780467"><ele>184.0</ele><time>2026-04-03T14:27:53.152Z</time></trkpt><trkpt lat="44.6887683" lon="8.5780417"><ele>183.0</ele><time>2026-04-03T14:27:55.151Z</time></trkpt><trkpt lat="44.6888517" lon="8.5779867"><ele>182.0</ele><time>2026-04-03T14:27:57.152Z</time></trkpt><trkpt lat="44.6889117" lon="8.5779033"><ele>181.0</ele><time>2026-04-03T14:27:59.151Z</time></trkpt><trkpt lat="44.6889733" lon="8.5777817"><ele>180.0</ele><time>2026-04-03T14:28:01.153Z</time></trkpt><trkpt lat="44.6890217" lon="8.577715"><ele>179.0</ele><time>2026-04-03T14:28:02.152Z</time></trkpt><trkpt lat="44.6891217" lon="8.5776317"><ele>179.6</ele><time>2026-04-03T14:28:04.152Z</time></trkpt><trkpt lat="44.6892217" lon="8.5776083"><ele>180.2</ele><time>2026-04-03T14:28:06.151Z</time></trkpt><trkpt lat="44.6892983" lon="8.57764"><ele>180.79999999999998</ele><time>2026-04-03T14:28:08.152Z</time></trkpt><trkpt lat="44.6893717" lon="8.57771"><ele>181.39999999999998</ele><time>2026-04-03T14:28:10.152Z</time></trkpt><trkpt lat="44.6894433" lon="8.5778083"><ele>182.0</ele><time>2026-04-03T14:28:12.152Z</time></trkpt><trkpt lat="44.6895067" lon="8.57792"><ele>182.0</ele><time>2026-04-03T14:28:14.153Z</time></trkpt><trkpt lat="44.6896067" lon="8.578"><ele>182.0</ele><time>2026-04-03T14:28:16.152Z</time></trkpt><trkpt lat="44.6897183" lon="8.57806"><ele>182.0</ele><time>2026-04-03T14:28:18.152Z</time></trkpt><trkpt lat="44.6898233" lon="8.5781017"><ele>182.0</ele><time>2026-04-03T14:28:20.153Z</time></trkpt><trkpt lat="44.68992" lon="8.57812"><ele>182.0</ele><time>2026-04-03T14:28:22.151Z</time></trkpt><trkpt lat="44.6900233" lon="8.5780933"><ele>182.0</ele><time>2026-04-03T14:28:24.153Z</time></trkpt><trkpt lat="44.690135" lon="8.5780383"><ele>182.0</ele><time>2026-04-03T14:28:26.151Z</time></trkpt><trkpt lat="44.6901983" lon="8.5780033"><ele>182.0</ele><time>2026-04-03T14:28:27.152Z</time></trkpt><trkpt lat="44.69026" lon="8.577965"><ele>182.0</ele><time>2026-04-03T14:28:28.153Z</time></trkpt><trkpt lat="44.6903233" lon="8.5779333"><ele>182.0</ele><time>2026-04-03T14:28:29.151Z</time></trkpt><trkpt lat="44.6903917" lon="8.5779183"><ele>182.0</ele><time>2026-04-03T14:28:30.154Z</time></trkpt><trkpt lat="44.690455" lon="8.5779067"><ele>182.2</ele><time>2026-04-03T14:28:31.153Z</time></trkpt><trkpt lat="44.690565" lon="8.5778967"><ele>182.39999999999998</ele><time>2026-04-03T14:28:33.152Z</time></trkpt><trkpt lat="44.6906683" lon="8.5778933"><ele>182.60000000000002</ele><time>2026-04-03T14:28:35.151Z</time></trkpt><trkpt lat="44.6907733" lon="8.5779033"><ele>182.8</ele><time>2026-04-03T14:28:37.152Z</time></trkpt><trkpt lat="44.6908683" lon="8.5778817"><ele>183.0</ele><time>2026-04-03T14:28:39.154Z</time></trkpt><trkpt lat="44.69097" lon="8.5777967"><ele>182.83333333333334</ele><time>2026-04-03T14:28:41.153Z</time></trkpt><trkpt lat="44.6910283" lon="8.5777483"><ele>182.66666666666666</ele><time>2026-04-03T14:28:42.151Z</time></trkpt><trkpt lat="44.69111" lon="8.5776633"><ele>182.5</ele><time>2026-04-03T14:28:44.152Z</time></trkpt><trkpt lat="44.6911867" lon="8.57755"><ele>182.33333333333331</ele><time>2026-04-03T14:28:46.152Z</time></trkpt><trkpt lat="44.6912333" lon="8.57748"><ele>182.16666666666666</ele><time>2026-04-03T14:28:47.153Z</time></trkpt><trkpt lat="44.69128" lon="8.5774067"><ele>182.0</ele><time>2026-04-03T14:28:48.151Z</time></trkpt><trkpt lat="44.6913283" lon="8.5773317"><ele>182.0</ele><time>2026-04-03T14:28:49.152Z</time></trkpt><trkpt lat="44.691375" lon="8.5772583"><ele>182.0</ele><time>2026-04-03T14:28:50.152Z</time></trkpt><trkpt lat="44.6914267" lon="8.5771983"><ele>182.0</ele><time>2026-04-03T14:28:51.156Z</time></trkpt><trkpt lat="44.6914817" lon="8.5771333"><ele>182.0</ele><time>2026-04-03T14:28:52.152Z</time></trkpt><trkpt lat="44.6915333" lon="8.5770683"><ele>182.0</ele><time>2026-04-03T14:28:53.153Z</time></trkpt><trkpt lat="44.6915833" lon="8.5770083"><ele>182.0</ele><time>2026-04-03T14:28:54.152Z</time></trkpt><trkpt lat="44.6916383" lon="8.57695"><ele>182.0</ele><time>2026-04-03T14:28:55.152Z</time></trkpt><trkpt lat="44.691695" lon="8.5768983"><ele>182.0</ele><time>2026-04-03T14:28:56.151Z</time></trkpt><trkpt lat="44.6917533" lon="8.57685"><ele>182.0</ele><time>2026-04-03T14:28:57.154Z</time></trkpt><trkpt lat="44.6918517" lon="8.5767783"><ele>182.0</ele><time>2026-04-03T14:28:59.153Z</time></trkpt><trkpt lat="44.691925" lon="8.576725"><ele>182.0</ele><time>2026-04-03T14:29:01.153Z</time></trkpt><trkpt lat="44.6920083" lon="8.57663"><ele>182.0</ele><time>2026-04-03T14:29:03.153Z</time></trkpt><trkpt lat="44.692055" lon="8.5765367"><ele>182.0</ele><time>2026-04-03T14:29:05.151Z</time></trkpt><trkpt lat="44.692045" lon="8.576405"><ele>182.0</ele><time>2026-04-03T14:29:07.152Z</time></trkpt><trkpt lat="44.6920183" lon="8.57625"><ele>182.0</ele><time>2026-04-03T14:29:09.155Z</time></trkpt><trkpt lat="44.6920217" lon="8.576095"><ele>182.0</ele><time>2026-04-03T14:29:11.151Z</time></trkpt><trkpt lat="44.69204" lon="8.575925"><ele>182.0</ele><time>2026-04-03T14:29:13.152Z</time></trkpt><trkpt lat="44.6920417" lon="8.57583"><ele>182.0</ele><time>2026-04-03T14:29:14.153Z</time></trkpt><trkpt lat="44.6920517" lon="8.5757383"><ele>184.6</ele><time>2026-04-03T14:29:15.152Z</time></trkpt><trkpt lat="44.6920883" lon="8.57559"><ele>187.2</ele><time>2026-04-03T14:29:17.152Z</time></trkpt><trkpt lat="44.6921517" lon="8.575485"><ele>189.8</ele><time>2026-04-03T14:29:19.154Z</time></trkpt><trkpt lat="44.69223" lon="8.5754567"><ele>192.4</ele><time>2026-04-03T14:29:21.151Z</time></trkpt><trkpt lat="44.6923167" lon="8.5755617"><ele>195.0</ele><time>2026-04-03T14:29:23.152Z</time></trkpt><trkpt lat="44.6923433" lon="8.5756467"><ele>195.0</ele><time>2026-04-03T14:29:24.153Z</time></trkpt><trkpt lat="44.692365" lon="8.5758"><ele>195.0</ele><time>2026-04-03T14:29:26.153Z</time></trkpt><trkpt lat="44.69242" lon="8.575935"><ele>195.0</ele><time>2026-04-03T14:29:28.153Z</time></trkpt><trkpt lat="44.692515" lon="8.5760517"><ele>195.0</ele><time>2026-04-03T14:29:30.153Z</time></trkpt><trkpt lat="44.6925717" lon="8.5761067"><ele>195.0</ele><time>2026-04-03T14:29:31.152Z</time></trkpt><trkpt lat="44.6926291" lon="8.5761509"><ele>194.83333333333334</ele><time>2026-04-03T14:29:32.153Z</time></trkpt><trkpt lat="44.6927226" lon="8.576258"><ele>194.66666666666669</ele><time>2026-04-03T14:29:34.151Z</time></trkpt><trkpt lat="44.6927594" lon="8.576336"><ele>194.5</ele><time>2026-04-03T14:29:35.153Z</time></trkpt><trkpt lat="44.692795" lon="8.5764215"><ele>194.33333333333334</ele><time>2026-04-03T14:29:36.151Z</time></trkpt><trkpt lat="44.6928316" lon="8.5764978"><ele>194.16666666666669</ele><time>2026-04-03T14:29:37.153Z</time></trkpt><trkpt lat="44.6929067" lon="8.5766282"><ele>194.0</ele><time>2026-04-03T14:29:39.152Z</time></trkpt><trkpt lat="44.6929708" lon="8.5767496"><ele>194.0</ele><time>2026-04-03T14:29:41.151Z</time></trkpt><trkpt lat="44.6930634" lon="8.5768111"><ele>194.0</ele><time>2026-04-03T14:29:43.152Z</time></trkpt><trkpt lat="44.6931264" lon="8.5768318"><ele>194.0</ele><time>2026-04-03T14:29:44.153Z</time></trkpt><trkpt lat="44.6931941" lon="8.5768543"><ele>194.0</ele><time>2026-04-03T14:29:45.152Z</time></trkpt><trkpt lat="44.6932628" lon="8.576871"><ele>194.0</ele><time>2026-04-03T14:29:46.151Z</time></trkpt><trkpt lat="44.6933314" lon="8.5768752"><ele>194.0</ele><time>2026-04-03T14:29:47.152Z</time></trkpt><trkpt lat="44.6933966" lon="8.5768656"><ele>194.0</ele><time>2026-04-03T14:29:48.151Z</time></trkpt><trkpt lat="44.6934574" lon="8.5768405"><ele>194.0</ele><time>2026-04-03T14:29:49.151Z</time></trkpt><trkpt lat="44.6935163" lon="8.5768069"><ele>194.0</ele><time>2026-04-03T14:29:50.153Z</time></trkpt><trkpt lat="44.6935758" lon="8.5767684"><ele>194.0</ele><time>2026-04-03T14:29:51.152Z</time></trkpt><trkpt lat="44.693681" lon="8.5766993"><ele>194.0</ele><time>2026-04-03T14:29:53.152Z</time></trkpt><trkpt lat="44.6937918" lon="8.5766264"><ele>194.0</ele><time>2026-04-03T14:29:55.152Z</time></trkpt><trkpt lat="44.6938956" lon="8.5765386"><ele>194.79999999999998</ele><time>2026-04-03T14:29:57.152Z</time></trkpt><trkpt lat="44.693944" lon="8.5764189"><ele>195.6</ele><time>2026-04-03T14:29:59.152Z</time></trkpt><trkpt lat="44.6939845" lon="8.5762725"><ele>196.4</ele><time>2026-04-03T14:30:01.153Z</time></trkpt><trkpt lat="44.6940274" lon="8.5761449"><ele>197.2</ele><time>2026-04-03T14:30:03.153Z</time></trkpt><trkpt lat="44.6941024" lon="8.576024"><ele>198.0</ele><time>2026-04-03T14:30:05.152Z</time></trkpt><trkpt lat="44.6941848" lon="8.5759221"><ele>198.0</ele><time>2026-04-03T14:30:07.151Z</time></trkpt><trkpt lat="44.6942726" lon="8.575826"><ele>198.0</ele><time>2026-04-03T14:30:09.152Z</time></trkpt><trkpt lat="44.6943348" lon="8.5757849"><ele>198.0</ele><time>2026-04-03T14:30:10.153Z</time></trkpt><trkpt lat="44.694401" lon="8.5757649"><ele>198.0</ele><time>2026-04-03T14:30:11.153Z</time></trkpt><trkpt lat="44.6944689" lon="8.5757588"><ele>198.0</ele><time>2026-04-03T14:30:12.152Z</time></trkpt><trkpt lat="44.6945394" lon="8.5757613"><ele>198.0</ele><time>2026-04-03T14:30:13.152Z</time></trkpt><trkpt lat="44.6946116" lon="8.5757701"><ele>196.5</ele><time>2026-04-03T14:30:14.151Z</time></trkpt><trkpt lat="44.694685" lon="8.5757759"><ele>195.0</ele><time>2026-04-03T14:30:15.154Z</time></trkpt><trkpt lat="44.6947572" lon="8.5757791"><ele>193.5</ele><time>2026-04-03T14:30:16.152Z</time></trkpt><trkpt lat="44.6948303" lon="8.5757766"><ele>192.0</ele><time>2026-04-03T14:30:17.153Z</time></trkpt><trkpt lat="44.6949015" lon="8.575771"><ele>190.5</ele><time>2026-04-03T14:30:18.152Z</time></trkpt><trkpt lat="44.6949693" lon="8.5757609"><ele>189.0</ele><time>2026-04-03T14:30:19.152Z</time></trkpt><trkpt lat="44.69508" lon="8.5757167"><ele>189.0</ele><time>2026-04-03T14:30:21.153Z</time></trkpt><trkpt lat="44.6951717" lon="8.5756567"><ele>189.0</ele><time>2026-04-03T14:30:23.154Z</time></trkpt><trkpt lat="44.6952683" lon="8.5755533"><ele>189.0</ele><time>2026-04-03T14:30:25.151Z</time></trkpt><trkpt lat="44.6953167" lon="8.5754933"><ele>189.0</ele><time>2026-04-03T14:30:26.153Z</time></trkpt><trkpt lat="44.695405" lon="8.5753633"><ele>189.0</ele><time>2026-04-03T14:30:28.152Z</time></trkpt><trkpt lat="44.6954433" lon="8.5752883"><ele>187.6</ele><time>2026-04-03T14:30:29.152Z</time></trkpt><trkpt lat="44.695495" lon="8.5751267"><ele>186.2</ele><time>2026-04-03T14:30:31.153Z</time></trkpt><trkpt lat="44.6955583" lon="8.5749867"><ele>184.79999999999998</ele><time>2026-04-03T14:30:33.153Z</time></trkpt><trkpt lat="44.69561" lon="8.574925"><ele>183.39999999999998</ele><time>2026-04-03T14:30:34.153Z</time></trkpt><trkpt lat="44.69567" lon="8.5748717"><ele>182.0</ele><time>2026-04-03T14:30:35.153Z</time></trkpt><trkpt lat="44.6957317" lon="8.57482"><ele>182.0</ele><time>2026-04-03T14:30:36.152Z</time></trkpt><trkpt lat="44.6957967" lon="8.57478"><ele>182.0</ele><time>2026-04-03T14:30:37.151Z</time></trkpt><trkpt lat="44.6958667" lon="8.5747533"><ele>182.0</ele><time>2026-04-03T14:30:38.152Z</time></trkpt><trkpt lat="44.6959367" lon="8.5747367"><ele>182.0</ele><time>2026-04-03T14:30:39.152Z</time></trkpt><trkpt lat="44.6960017" lon="8.5747117"><ele>182.0</ele><time>2026-04-03T14:30:40.151Z</time></trkpt><trkpt lat="44.6960667" lon="8.5746833"><ele>182.0</ele><time>2026-04-03T14:30:41.152Z</time></trkpt><trkpt lat="44.6961283" lon="8.57464"><ele>182.0</ele><time>2026-04-03T14:30:42.151Z</time></trkpt><trkpt lat="44.6961883" lon="8.5746017"><ele>181.71428571428572</ele><time>2026-04-03T14:30:43.151Z</time></trkpt><trkpt lat="44.696245" lon="8.5745517"><ele>181.42857142857144</ele><time>2026-04-03T14:30:44.154Z</time></trkpt><trkpt lat="44.6962967" lon="8.5744917"><ele>181.14285714285714</ele><time>2026-04-03T14:30:45.153Z</time></trkpt><trkpt lat="44.6963467" lon="8.5744167"><ele>180.85714285714286</ele><time>2026-04-03T14:30:46.152Z</time></trkpt><trkpt lat="44.6963967" lon="8.5743417"><ele>180.57142857142858</ele><time>2026-04-03T14:30:47.152Z</time></trkpt><trkpt lat="44.6964417" lon="8.5742667"><ele>180.28571428571428</ele><time>2026-04-03T14:30:48.151Z</time></trkpt><trkpt lat="44.6964833" lon="8.5741883"><ele>180.0</ele><time>2026-04-03T14:30:49.152Z</time></trkpt><trkpt lat="44.6965283" lon="8.5741117"><ele>180.0</ele><time>2026-04-03T14:30:50.151Z</time></trkpt><trkpt lat="44.696575" lon="8.5740417"><ele>180.0</ele><time>2026-04-03T14:30:51.154Z</time></trkpt><trkpt lat="44.696625" lon="8.5739783"><ele>180.0</ele><time>2026-04-03T14:30:52.152Z</time></trkpt><trkpt lat="44.6966783" lon="8.5739183"><ele>180.0</ele><time>2026-04-03T14:30:53.152Z</time></trkpt><trkpt lat="44.6967383" lon="8.573855"><ele>180.0</ele><time>2026-04-03T14:30:54.152Z</time></trkpt><trkpt lat="44.6967983" lon="8.5737833"><ele>180.0</ele><time>2026-04-03T14:30:55.153Z</time></trkpt><trkpt lat="44.696855" lon="8.57371"><ele>180.0</ele><time>2026-04-03T14:30:56.151Z</time></trkpt><trkpt lat="44.6969117" lon="8.5736383"><ele>178.83333333333334</ele><time>2026-04-03T14:30:57.152Z</time></trkpt><trkpt lat="44.696965" lon="8.57357"><ele>177.66666666666666</ele><time>2026-04-03T14:30:58.152Z</time></trkpt><trkpt lat="44.6970183" lon="8.5734983"><ele>176.5</ele><time>2026-04-03T14:30:59.152Z</time></trkpt><trkpt lat="44.6970717" lon="8.57343"><ele>175.33333333333331</ele><time>2026-04-03T14:31:00.152Z</time></trkpt><trkpt lat="44.697125" lon="8.5733817"><ele>174.16666666666666</ele><time>2026-04-03T14:31:01.151Z</time></trkpt><trkpt lat="44.697235" lon="8.57335"><ele>173.0</ele><time>2026-04-03T14:31:03.153Z</time></trkpt><trkpt lat="44.6973467" lon="8.5734083"><ele>173.0</ele><time>2026-04-03T14:31:05.152Z</time></trkpt><trkpt lat="44.6974533" lon="8.5734567"><ele>173.0</ele><time>2026-04-03T14:31:07.152Z</time></trkpt><trkpt lat="44.697565" lon="8.573465"><ele>173.0</ele><time>2026-04-03T14:31:09.153Z</time></trkpt><trkpt lat="44.6976833" lon="8.573445"><ele>173.0</ele><time>2026-04-03T14:31:11.152Z</time></trkpt><trkpt lat="44.697775" lon="8.57338"><ele>173.0</ele><time>2026-04-03T14:31:13.152Z</time></trkpt><trkpt lat="44.697855" lon="8.57329"><ele>173.0</ele><time>2026-04-03T14:31:15.155Z</time></trkpt><trkpt lat="44.69794" lon="8.5731933"><ele>173.0</ele><time>2026-04-03T14:31:17.152Z</time></trkpt><trkpt lat="44.6980217" lon="8.5730867"><ele>173.0</ele><time>2026-04-03T14:31:19.153Z</time></trkpt><trkpt lat="44.6981017" lon="8.5729883"><ele>173.0</ele><time>2026-04-03T14:31:21.152Z</time></trkpt><trkpt lat="44.69818" lon="8.5729"><ele>173.0</ele><time>2026-04-03T14:31:23.152Z</time></trkpt><trkpt lat="44.698275" lon="8.5728383"><ele>173.0</ele><time>2026-04-03T14:31:25.154Z</time></trkpt><trkpt lat="44.6983733" lon="8.5727867"><ele>173.0</ele><time>2026-04-03T14:31:27.154Z</time></trkpt><trkpt lat="44.6984667" lon="8.5727467"><ele>173.0</ele><time>2026-04-03T14:31:29.151Z</time></trkpt><trkpt lat="44.6985767" lon="8.5727183"><ele>173.0</ele><time>2026-04-03T14:31:31.153Z</time></trkpt><trkpt lat="44.6986883" lon="8.5726917"><ele>173.0</ele><time>2026-04-03T14:31:33.152Z</time></trkpt><trkpt lat="44.6988117" lon="8.5726833"><ele>172.0</ele><time>2026-04-03T14:31:35.152Z</time></trkpt><trkpt lat="44.698885" lon="8.5726817"><ele>171.0</ele><time>2026-04-03T14:31:36.155Z</time></trkpt><trkpt lat="44.69896" lon="8.57268"><ele>170.0</ele><time>2026-04-03T14:31:37.151Z</time></trkpt><trkpt lat="44.69904" lon="8.5726733"><ele>169.0</ele><time>2026-04-03T14:31:38.153Z</time></trkpt><trkpt lat="44.6991217" lon="8.5726617"><ele>168.0</ele><time>2026-04-03T14:31:39.151Z</time></trkpt><trkpt lat="44.6992" lon="8.572635"><ele>167.0</ele><time>2026-04-03T14:31:40.152Z</time></trkpt><trkpt lat="44.6992817" lon="8.572595"><ele>167.0</ele><time>2026-04-03T14:31:41.155Z</time></trkpt><trkpt lat="44.69936" lon="8.5725267"><ele>167.0</ele><time>2026-04-03T14:31:42.151Z</time></trkpt><trkpt lat="44.6994383" lon="8.5724517"><ele>167.0</ele><time>2026-04-03T14:31:43.151Z</time></trkpt><trkpt lat="44.69951" lon="8.572375"><ele>167.0</ele><time>2026-04-03T14:31:44.151Z</time></trkpt><trkpt lat="44.69959" lon="8.5722967"><ele>167.0</ele><time>2026-04-03T14:31:45.152Z</time></trkpt><trkpt lat="44.699675" lon="8.5722183"><ele>166.8</ele><time>2026-04-03T14:31:46.151Z</time></trkpt><trkpt lat="44.6997567" lon="8.572135"><ele>166.6</ele><time>2026-04-03T14:31:47.151Z</time></trkpt><trkpt lat="44.6998417" lon="8.572055"><ele>166.4</ele><time>2026-04-03T14:31:48.15Z</time></trkpt><trkpt lat="44.6999283" lon="8.5719783"><ele>166.20000000000002</ele><time>2026-04-03T14:31:49.155Z</time></trkpt><trkpt lat="44.70002" lon="8.5719067"><ele>166.0</ele><time>2026-04-03T14:31:50.15Z</time></trkpt><trkpt lat="44.7001117" lon="8.5718417"><ele>166.0</ele><time>2026-04-03T14:31:51.155Z</time></trkpt><trkpt lat="44.7002033" lon="8.5717767"><ele>166.0</ele><time>2026-04-03T14:31:52.152Z</time></trkpt><trkpt lat="44.700295" lon="8.571705"><ele>166.0</ele><time>2026-04-03T14:31:53.151Z</time></trkpt><trkpt lat="44.700385" lon="8.57163"><ele>166.0</ele><time>2026-04-03T14:31:54.152Z</time></trkpt><trkpt lat="44.7004667" lon="8.571555"><ele>166.0</ele><time>2026-04-03T14:31:55.153Z</time></trkpt><trkpt lat="44.700545" lon="8.571475"><ele>166.0</ele><time>2026-04-03T14:31:56.15Z</time></trkpt><trkpt lat="44.7006217" lon="8.5713883"><ele>166.0</ele><time>2026-04-03T14:31:57.152Z</time></trkpt><trkpt lat="44.7006967" lon="8.5713033"><ele>166.0</ele><time>2026-04-03T14:31:58.152Z</time></trkpt><trkpt lat="44.700775" lon="8.5712167"><ele>166.0</ele><time>2026-04-03T14:31:59.151Z</time></trkpt><trkpt lat="44.7008517" lon="8.5711333"><ele>166.0</ele><time>2026-04-03T14:32:00.152Z</time></trkpt><trkpt lat="44.70093" lon="8.5710517"><ele>166.0</ele><time>2026-04-03T14:32:01.153Z</time></trkpt><trkpt lat="44.7010083" lon="8.570975"><ele>166.0</ele><time>2026-04-03T14:32:02.153Z</time></trkpt><trkpt lat="44.70109" lon="8.5709017"><ele>166.0</ele><time>2026-04-03T14:32:03.151Z</time></trkpt><trkpt lat="44.7011717" lon="8.5708267"><ele>166.0</ele><time>2026-04-03T14:32:04.153Z</time></trkpt><trkpt lat="44.7012517" lon="8.5707533"><ele>166.0</ele><time>2026-04-03T14:32:05.151Z</time></trkpt><trkpt lat="44.7013333" lon="8.57068"><ele>166.0</ele><time>2026-04-03T14:32:06.152Z</time></trkpt><trkpt lat="44.7014167" lon="8.570605"><ele>166.0</ele><time>2026-04-03T14:32:07.151Z</time></trkpt><trkpt lat="44.7015017" lon="8.5705267"><ele>166.0</ele><time>2026-04-03T14:32:08.151Z</time></trkpt><trkpt lat="44.7015883" lon="8.5704533"><ele>166.0</ele><time>2026-04-03T14:32:09.151Z</time></trkpt><trkpt lat="44.7016733" lon="8.5703783"><ele>166.0</ele><time>2026-04-03T14:32:10.153Z</time></trkpt><trkpt lat="44.7017567" lon="8.5703017"><ele>166.0</ele><time>2026-04-03T14:32:11.151Z</time></trkpt><trkpt lat="44.7018383" lon="8.57023"><ele>166.0</ele><time>2026-04-03T14:32:12.154Z</time></trkpt><trkpt lat="44.701915" lon="8.5701667"><ele>166.0</ele><time>2026-04-03T14:32:13.153Z</time></trkpt><trkpt lat="44.7019917" lon="8.5701083"><ele>166.0</ele><time>2026-04-03T14:32:14.152Z</time></trkpt><trkpt lat="44.7020633" lon="8.5700533"><ele>166.0</ele><time>2026-04-03T14:32:15.152Z</time></trkpt><trkpt lat="44.7021267" lon="8.5700017"><ele>166.0</ele><time>2026-04-03T14:32:16.153Z</time></trkpt><trkpt lat="44.7021833" lon="8.5699533"><ele>164.66666666666669</ele><time>2026-04-03T14:32:17.151Z</time></trkpt><trkpt lat="44.70224" lon="8.56991"><ele>163.33333333333334</ele><time>2026-04-03T14:32:18.152Z</time></trkpt><trkpt lat="44.7023567" lon="8.5698433"><ele>162.0</ele><time>2026-04-03T14:32:20.155Z</time></trkpt><trkpt lat="44.7024183" lon="8.5698117"><ele>160.66666666666666</ele><time>2026-04-03T14:32:21.153Z</time></trkpt><trkpt lat="44.7024867" lon="8.5697867"><ele>159.33333333333331</ele><time>2026-04-03T14:32:22.151Z</time></trkpt><trkpt lat="44.7025567" lon="8.5697617"><ele>158.0</ele><time>2026-04-03T14:32:23.151Z</time></trkpt><trkpt lat="44.702625" lon="8.5697383"><ele>158.0</ele><time>2026-04-03T14:32:24.152Z</time></trkpt><trkpt lat="44.7026917" lon="8.5697183"><ele>158.0</ele><time>2026-04-03T14:32:25.151Z</time></trkpt><trkpt lat="44.702755" lon="8.569705"><ele>150.0</ele><time>2026-04-03T14:32:26.154Z</time></trkpt><trkpt lat="44.70285" lon="8.56969"><ele>150.0</ele><time>2026-04-03T14:32:28.151Z</time></trkpt><trkpt lat="44.70292" lon="8.5696767"><ele>150.0</ele><time>2026-04-03T14:32:30.154Z</time></trkpt></trkseg></trk></gpx>